createdAt,value
2022-08-18T00:01:14.905Z,65.37
2022-08-18T00:03:56.673Z,65.71
2022-08-18T00:06:29.542Z,66.00
2022-08-18T00:08:59.926Z,66.44
2022-08-18T00:11:41.071Z,66.24
2022-08-18T00:14:22.750Z,65.79
2022-08-18T00:16:53.520Z,65.39
2022-08-18T00:19:43.518Z,65.21
2022-08-18T00:22:15.283Z,65.52
2022-08-18T00:24:48.581Z,66.08
2022-08-18T00:27:23.776Z,66.53
2022-08-18T00:29:58.236Z,67.03
2022-08-18T00:32:30.188Z,66.91
2022-08-18T00:34:57.015Z,66.73
2022-08-18T00:37:24.720Z,66.24
2022-08-18T00:39:53.866Z,65.80
2022-08-18T00:42:30.722Z,65.91
2022-08-18T00:45:01.162Z,66.16
2022-08-18T00:47:33.013Z,66.36
2022-08-18T00:50:15.768Z,66.65
2022-08-18T00:52:53.677Z,66.82
2022-08-18T00:55:23.682Z,66.66
2022-08-18T00:57:55.899Z,66.72
2022-08-18T01:00:22.820Z,66.55
2022-08-18T01:02:58.931Z,66.62
2022-08-18T01:05:41.177Z,66.72
2022-08-18T01:08:14.296Z,65.97
2022-08-18T01:10:42.475Z,66.86
2022-08-18T01:13:10.257Z,67.06
2022-08-18T01:15:37.887Z,67.17
2022-08-18T01:18:29.475Z,67.55
2022-08-18T01:21:23.760Z,67.81
2022-08-18T01:23:53.544Z,68.11
2022-08-18T01:26:22.653Z,67.25
2022-08-18T01:28:50.556Z,67.08
2022-08-18T01:31:53.296Z,67.09
2022-08-18T01:34:25.592Z,67.42
2022-08-18T01:36:54.823Z,67.69
2022-08-18T01:41:17.269Z,67.99
2022-08-18T01:42:11.298Z,68.05
2022-08-18T01:44:41.464Z,68.06
2022-08-18T01:47:10.890Z,68.29
2022-08-18T01:49:43.136Z,68.69
2022-08-18T01:52:18.196Z,68.65
2022-08-18T01:54:44.827Z,68.77
2022-08-18T01:57:13.390Z,69.04
2022-08-18T01:59:42.391Z,69.17
2022-08-18T02:02:18.475Z,68.99
2022-08-18T02:04:47.352Z,69.16
2022-08-18T02:07:14.894Z,69.37
2022-08-18T02:09:43.674Z,69.68
2022-08-18T02:12:11.276Z,70.20
2022-08-18T02:14:39.282Z,69.48
2022-08-18T02:17:08.908Z,69.45
2022-08-18T02:19:40.264Z,69.62
2022-08-18T02:22:10.531Z,69.05
2022-08-18T02:24:38.283Z,68.44
2022-08-18T02:27:06.104Z,68.74
2022-08-18T02:29:33.289Z,68.35
2022-08-18T02:31:59.819Z,68.60
2022-08-18T02:34:26.457Z,68.18
2022-08-18T02:36:53.062Z,68.16
2022-08-18T02:39:20.324Z,67.89
2022-08-18T02:41:47.121Z,67.77
2022-08-18T02:44:14.319Z,68.02
2022-08-18T02:46:40.924Z,67.73
2022-08-18T02:49:08.030Z,67.66
2022-08-18T02:51:34.934Z,67.62
2022-08-18T02:54:01.652Z,67.56
2022-08-18T02:56:41.575Z,68.07
2022-08-18T02:59:15.195Z,68.86
2022-08-18T03:01:46.317Z,69.13
2022-08-18T03:04:17.600Z,69.03
2022-08-18T03:06:46.307Z,68.70
2022-08-18T03:09:18.434Z,68.47
2022-08-18T03:11:45.947Z,68.07
2022-08-18T03:14:14.482Z,67.68
2022-08-18T03:16:53.597Z,67.64
2022-08-18T03:19:29.030Z,68.46
2022-08-18T03:21:59.416Z,68.94
2022-08-18T03:24:29.885Z,68.96
2022-08-18T03:26:57.219Z,69.10
2022-08-18T03:29:29.482Z,68.87
2022-08-18T03:31:57.661Z,69.48
2022-08-18T03:34:24.228Z,69.39
2022-08-18T03:36:51.993Z,68.75
2022-08-18T03:39:22.831Z,68.67
2022-08-18T03:41:59.798Z,68.74
2022-08-18T03:44:36.966Z,68.32
2022-08-18T03:47:07.976Z,68.67
2022-08-18T03:49:35.456Z,68.57
2022-08-18T03:52:03.509Z,68.71
2022-08-18T03:54:34.158Z,68.88
2022-08-18T03:57:01.385Z,69.02
2022-08-18T03:59:30.614Z,68.66
2022-08-18T04:01:57.350Z,68.25
2022-08-18T04:04:28.218Z,68.34
2022-08-18T04:07:00.547Z,68.13
2022-08-18T04:09:30.778Z,68.57
2022-08-18T04:12:02.656Z,69.49
2022-08-18T04:14:31.476Z,70.00
2022-08-18T04:16:59.650Z,69.77
2022-08-18T04:19:27.814Z,70.14
2022-08-18T04:21:57.713Z,69.75
2022-08-18T04:24:28.263Z,69.86
2022-08-18T04:27:00.780Z,70.06
2022-08-18T04:29:28.451Z,70.32
2022-08-18T04:31:55.274Z,70.41
2022-08-18T04:34:23.094Z,70.39
2022-08-18T04:36:54.261Z,70.64
2022-08-18T04:39:22.785Z,70.95
2022-08-18T04:41:50.654Z,70.84
2022-08-18T04:44:18.202Z,70.29
2022-08-18T04:46:51.796Z,70.07
2022-08-18T04:49:23.931Z,69.62
2022-08-18T04:52:37.404Z,69.62
2022-08-18T04:54:56.354Z,70.29
2022-08-18T04:57:23.972Z,70.32
2022-08-18T04:59:52.372Z,70.20
2022-08-18T05:02:21.613Z,70.22
2022-08-18T05:04:48.754Z,69.71
2022-08-18T05:07:20.531Z,69.50
2022-08-18T05:09:47.150Z,69.91
2022-08-18T05:12:16.124Z,69.34
2022-08-18T05:14:45.291Z,69.37
2022-08-18T05:17:14.870Z,69.11
2022-08-18T05:19:44.346Z,68.96
2022-08-18T05:22:19.286Z,68.73
2022-08-18T05:24:52.837Z,69.44
2022-08-18T05:27:19.692Z,70.06
2022-08-18T05:29:46.449Z,70.25
2022-08-18T05:32:37.310Z,69.98
2022-08-18T05:35:18.743Z,69.48
2022-08-18T05:38:26.481Z,69.17
2022-08-18T05:41:14.275Z,68.60
2022-08-18T05:43:51.481Z,68.62
2022-08-18T05:46:26.274Z,68.14
2022-08-18T05:48:52.828Z,68.20
2022-08-18T05:51:41.064Z,68.13
2022-08-18T05:54:28.355Z,67.92
2022-08-18T05:57:05.316Z,67.55
2022-08-18T05:59:37.201Z,67.77
2022-08-18T06:02:36.672Z,68.72
2022-08-18T06:05:12.994Z,68.07
2022-08-18T06:07:56.871Z,68.19
2022-08-18T06:10:24.815Z,67.70
2022-08-18T06:13:01.798Z,67.64
2022-08-18T06:15:52.790Z,67.63
2022-08-18T06:18:49.310Z,68.14
2022-08-18T06:21:57.127Z,67.93
2022-08-18T06:24:44.308Z,68.39
2022-08-18T06:27:20.651Z,68.13
2022-08-18T06:30:24.635Z,68.30
2022-08-18T06:33:06.579Z,67.75
2022-08-18T06:35:58.545Z,67.71
2022-08-18T06:38:55.113Z,68.18
2022-08-18T06:41:40.732Z,68.03
2022-08-18T06:44:32.324Z,68.19
2022-08-18T06:47:11.289Z,67.96
2022-08-18T06:49:46.597Z,67.75
2022-08-18T06:53:02.159Z,67.69
2022-08-18T06:55:45.759Z,67.34
2022-08-18T06:58:12.179Z,67.12
2022-08-18T07:00:46.297Z,67.38
2022-08-18T07:03:21.794Z,67.29
2022-08-18T07:06:14.066Z,67.54
2022-08-18T07:08:45.233Z,67.40
2022-08-18T07:11:21.979Z,67.33
2022-08-18T07:14:09.584Z,67.47
2022-08-18T07:16:57.873Z,67.46
2022-08-18T07:19:30.795Z,67.01
2022-08-18T07:22:04.546Z,66.81
2022-08-18T07:24:44.662Z,66.47
2022-08-18T07:27:21.646Z,66.36
2022-08-18T07:30:15.335Z,66.27
2022-08-18T07:33:00.030Z,65.96
2022-08-18T07:35:39.250Z,65.94
2022-08-18T07:38:41.971Z,65.98
2022-08-18T07:41:22.732Z,66.13
2022-08-18T07:44:00.594Z,65.95
2022-08-18T07:46:38.609Z,65.70
2022-08-18T07:49:07.029Z,65.69
2022-08-18T07:52:43.923Z,65.58
2022-08-18T07:55:29.005Z,65.75
2022-08-18T07:58:23.331Z,65.84
2022-08-18T08:01:00.000Z,66.07
2022-08-18T08:03:55.651Z,66.36
2022-08-18T08:06:40.981Z,66.72
2022-08-18T08:09:46.119Z,66.49
2022-08-18T08:13:12.380Z,67.12
2022-08-18T08:16:12.401Z,67.13
2022-08-18T08:20:00.433Z,67.12
2022-08-18T08:22:38.406Z,67.41
2022-08-18T08:28:46.923Z,67.28
2022-08-18T08:32:04.052Z,66.71
2022-08-18T08:34:48.659Z,66.68
2022-08-18T08:37:24.417Z,66.54
2022-08-18T08:40:00.555Z,66.40
2022-08-18T08:42:58.547Z,66.92
2022-08-18T08:45:32.260Z,66.28
2022-08-18T08:48:56.335Z,65.91
2022-08-18T08:51:34.852Z,65.67
2022-08-18T08:54:31.395Z,65.37
2022-08-18T08:57:02.062Z,64.97
2022-08-18T08:59:28.686Z,64.91
2022-08-18T09:02:32.011Z,64.90
2022-08-18T09:05:13.819Z,64.33
2022-08-18T09:08:32.663Z,64.15
2022-08-18T09:11:57.946Z,63.79
2022-08-18T09:14:57.060Z,64.33
2022-08-18T09:18:08.947Z,64.27
2022-08-18T09:20:56.922Z,64.06
2022-08-18T09:23:34.163Z,63.66
2022-08-18T09:26:41.448Z,63.61
2022-08-18T09:29:16.615Z,63.71
2022-08-18T09:31:46.561Z,63.67
2022-08-18T09:35:02.619Z,62.94
2022-08-18T09:38:17.458Z,62.84
2022-08-18T09:41:26.520Z,62.92
2022-08-18T09:44:35.128Z,62.65
2022-08-18T09:47:02.284Z,62.53
2022-08-18T09:49:29.102Z,62.44
2022-08-18T09:52:24.128Z,62.11
2022-08-18T09:55:17.896Z,61.95
2022-08-18T09:57:46.574Z,62.16
2022-08-18T10:00:29.589Z,61.65
2022-08-18T10:02:57.201Z,61.25
2022-08-18T10:05:31.028Z,60.86
2022-08-18T10:11:09.362Z,60.02
2022-08-18T10:14:07.770Z,59.42
2022-08-18T10:17:21.353Z,57.41
2022-08-18T10:20:07.921Z,58.54
2022-08-18T10:22:54.484Z,59.12
2022-08-18T10:25:46.306Z,58.70
2022-08-18T10:28:54.278Z,58.69
2022-08-18T10:34:19.401Z,59.03
2022-08-18T10:36:53.054Z,58.65
2022-08-18T10:39:42.835Z,58.40
2022-08-18T10:42:33.687Z,58.17
2022-08-18T10:45:13.737Z,58.34
2022-08-18T10:51:30.456Z,57.54
2022-08-18T10:54:54.897Z,57.75
2022-08-18T10:57:39.496Z,57.31
2022-08-18T11:00:21.255Z,56.25
2022-08-18T11:03:51.951Z,56.40
2022-08-18T11:06:21.716Z,56.38
2022-08-18T11:08:55.328Z,55.93
2022-08-18T11:11:38.075Z,55.23
2022-08-18T11:14:31.488Z,54.83
2022-08-18T11:17:28.127Z,54.77
2022-08-18T11:19:55.994Z,54.51
2022-08-18T11:22:35.568Z,54.01
2022-08-18T11:25:19.119Z,53.69
2022-08-18T11:27:48.723Z,53.48
2022-08-18T11:30:17.230Z,53.31
2022-08-18T11:32:51.763Z,52.89
2022-08-18T11:35:27.476Z,52.33
2022-08-18T11:38:03.212Z,52.63
2022-08-18T11:43:38.897Z,52.48
2022-08-18T11:46:29.282Z,52.43
2022-08-18T11:49:00.735Z,52.18
2022-08-18T11:51:34.157Z,52.08
2022-08-18T11:54:21.824Z,52.22
2022-08-18T11:56:50.326Z,51.68
2022-08-18T11:59:53.118Z,51.42
2022-08-18T12:02:18.143Z,51.21
2022-08-18T12:04:52.898Z,50.78
2022-08-18T12:07:30.759Z,50.57
2022-08-18T12:10:26.313Z,50.50
2022-08-18T12:12:59.808Z,50.66
2022-08-18T12:15:43.843Z,50.56
2022-08-18T12:18:25.922Z,50.69
2022-08-18T12:20:58.029Z,50.85
2022-08-18T12:23:24.938Z,50.08
2022-08-18T12:28:39.381Z,50.79
2022-08-18T12:31:14.922Z,52.07
2022-08-18T12:34:00.856Z,52.07
2022-08-18T12:36:29.740Z,51.40
2022-08-18T12:38:57.109Z,51.45
2022-08-18T12:41:24.358Z,50.87
2022-08-18T12:43:59.138Z,51.09
2022-08-18T12:46:27.014Z,51.13
2022-08-18T12:48:53.831Z,50.40
2022-08-18T12:51:24.823Z,50.26
2022-08-18T12:53:58.272Z,50.58
2022-08-18T12:56:31.582Z,51.28
2022-08-18T12:59:04.496Z,51.15
2022-08-18T13:01:37.326Z,51.06
2022-08-18T13:04:12.393Z,51.16
2022-08-18T13:06:58.894Z,51.08
2022-08-18T13:09:35.285Z,50.22
2022-08-18T13:12:17.119Z,50.32
2022-08-18T13:14:45.283Z,49.83
2022-08-18T13:17:29.973Z,49.69
2022-08-18T13:20:01.251Z,49.61
2022-08-18T13:22:32.144Z,49.62
2022-08-18T13:25:06.915Z,49.41
2022-08-18T13:27:35.916Z,49.28
2022-08-18T13:30:30.081Z,49.74
2022-08-18T13:33:05.384Z,49.14
2022-08-18T13:35:47.846Z,49.35
2022-08-18T13:38:25.864Z,48.89
2022-08-18T13:40:57.920Z,49.13
2022-08-18T13:43:34.241Z,48.95
2022-08-18T13:46:02.443Z,49.04
2022-08-18T13:48:31.860Z,48.21
2022-08-18T13:51:02.017Z,48.29
2022-08-18T13:53:31.698Z,47.98
2022-08-18T13:55:59.366Z,47.58
2022-08-18T13:58:29.216Z,47.30
2022-08-18T14:01:39.816Z,47.14
2022-08-18T14:03:53.581Z,47.32
2022-08-18T14:06:24.151Z,47.20
2022-08-18T14:08:53.389Z,47.31
2022-08-18T14:11:33.204Z,47.08
2022-08-18T14:14:02.074Z,47.13
2022-08-18T14:16:28.842Z,47.49
2022-08-18T14:19:14.190Z,47.22
2022-08-18T14:22:11.088Z,47.63
2022-08-18T14:24:59.816Z,47.22
2022-08-18T14:27:38.721Z,46.56
2022-08-18T14:30:11.211Z,46.50
2022-08-18T14:32:48.914Z,46.58
2022-08-18T14:35:33.818Z,46.61
2022-08-18T14:38:09.779Z,46.73
2022-08-18T14:40:41.762Z,46.77
2022-08-18T14:43:14.133Z,46.57
2022-08-18T14:45:48.959Z,46.81
2022-08-18T14:48:21.507Z,46.79
2022-08-18T14:50:52.482Z,47.04
2022-08-18T14:53:23.475Z,47.07
2022-08-18T14:55:52.573Z,47.29
2022-08-18T14:58:27.622Z,47.17
2022-08-18T15:00:58.308Z,47.25
2022-08-18T15:03:31.620Z,47.07
2022-08-18T15:06:00.970Z,46.91
2022-08-18T15:08:36.135Z,46.64
2022-08-18T15:11:11.763Z,46.72
2022-08-18T15:13:41.737Z,46.65
2022-08-18T15:16:13.350Z,46.72
2022-08-18T15:18:45.539Z,47.00
2022-08-18T15:21:34.848Z,46.62
2022-08-18T15:24:23.997Z,47.02
2022-08-18T15:27:03.266Z,47.26
2022-08-18T15:29:33.863Z,47.07
2022-08-18T15:32:05.741Z,47.44
2022-08-18T15:34:46.376Z,46.98
2022-08-18T15:37:15.891Z,47.19
2022-08-18T15:39:51.679Z,46.99
2022-08-18T15:42:19.098Z,47.07
2022-08-18T15:44:46.054Z,47.24
2022-08-18T15:47:12.638Z,46.83
2022-08-18T15:49:39.207Z,46.65
2022-08-18T15:52:06.775Z,46.40
2022-08-18T15:54:42.255Z,46.14
2022-08-18T15:57:39.004Z,46.03
2022-08-18T16:00:01.276Z,46.10
2022-08-18T16:02:27.799Z,46.16
2022-08-18T16:04:54.601Z,46.07
2022-08-18T16:07:40.043Z,45.52
2022-08-18T16:10:08.051Z,46.22
2022-08-18T16:12:34.588Z,46.24
2022-08-18T16:15:03.699Z,45.79
2022-08-18T16:17:35.425Z,45.41
2022-08-18T16:20:02.041Z,45.46
2022-08-18T16:22:29.138Z,45.29
2022-08-18T16:24:55.751Z,45.55
2022-08-18T16:27:22.238Z,45.54
2022-08-18T16:29:49.539Z,45.79
2022-08-18T16:32:16.764Z,45.61
2022-08-18T16:34:43.403Z,45.86
2022-08-18T16:37:10.383Z,46.06
2022-08-18T16:39:37.042Z,46.17
2022-08-18T16:42:04.167Z,45.87
2022-08-18T16:44:32.699Z,46.26
2022-08-18T16:47:01.550Z,45.88
2022-08-18T16:49:28.839Z,46.32
2022-08-18T16:51:55.683Z,46.23
2022-08-18T16:54:22.569Z,46.26
2022-08-18T16:56:49.094Z,45.99
2022-08-18T16:59:34.444Z,46.06
2022-08-18T17:02:19.909Z,46.41
2022-08-18T17:04:46.457Z,46.54
2022-08-18T17:07:13.005Z,46.67
2022-08-18T17:09:39.555Z,46.70
2022-08-18T17:12:06.274Z,46.48
2022-08-18T17:14:33.579Z,46.33
2022-08-18T17:17:00.918Z,46.77
2022-08-18T17:19:33.527Z,46.71
2022-08-18T17:22:02.987Z,46.66
2022-08-18T17:24:31.959Z,46.34
2022-08-18T17:27:27.655Z,46.25
2022-08-18T17:30:18.527Z,46.81
2022-08-18T17:32:54.186Z,46.73
2022-08-18T17:35:33.181Z,47.08
2022-08-18T17:38:23.200Z,47.36
2022-08-18T17:40:54.421Z,47.34
2022-08-18T17:43:30.443Z,47.49
2022-08-18T17:46:01.187Z,47.77
2022-08-18T17:48:37.605Z,47.93
2022-08-18T17:51:32.227Z,47.91
2022-08-18T17:54:02.460Z,47.75
2022-08-18T17:56:42.320Z,47.83
2022-08-18T17:59:51.298Z,47.98
2022-08-18T18:02:29.698Z,48.05
2022-08-18T18:05:09.260Z,47.89
2022-08-18T18:07:45.003Z,48.13
2022-08-18T18:10:51.077Z,48.19
2022-08-18T18:13:32.227Z,48.60
2022-08-18T18:16:27.909Z,48.59
2022-08-18T18:19:14.696Z,48.81
2022-08-18T18:22:00.530Z,48.64
2022-08-18T18:24:33.408Z,49.08
2022-08-18T18:27:00.445Z,49.15
2022-08-18T18:29:38.272Z,49.03
2022-08-18T18:32:50.430Z,48.88
2022-08-18T18:35:34.171Z,49.44
2022-08-18T18:38:21.771Z,49.52
2022-08-18T18:40:58.809Z,49.48
2022-08-18T18:43:45.900Z,49.30
2022-08-18T18:46:31.096Z,49.55
2022-08-18T18:49:18.856Z,49.86
2022-08-18T18:52:45.479Z,49.97
2022-08-18T18:55:24.599Z,50.34
2022-08-18T18:58:12.375Z,51.21
2022-08-18T19:00:59.448Z,51.53
2022-08-18T19:03:56.715Z,52.05
2022-08-18T19:06:37.926Z,53.22
2022-08-18T19:10:10.495Z,53.84
2022-08-18T19:12:52.604Z,53.64
2022-08-18T19:15:21.106Z,53.70
2022-08-18T19:18:08.901Z,53.98
2022-08-18T19:21:44.763Z,54.23
2022-08-18T19:24:02.380Z,54.91
2022-08-18T19:26:40.386Z,55.02
2022-08-18T19:29:23.074Z,54.75
2022-08-18T19:32:16.352Z,54.84
2022-08-18T19:34:51.371Z,54.83
2022-08-18T19:37:32.223Z,55.54
2022-08-18T19:40:23.955Z,55.47
2022-08-18T19:43:12.340Z,56.21
2022-08-18T19:46:10.982Z,56.66
2022-08-18T19:49:03.534Z,56.75
2022-08-18T19:51:37.453Z,56.90
2022-08-18T19:54:11.129Z,57.15
2022-08-18T19:57:03.406Z,57.59
2022-08-18T19:59:47.087Z,57.99
2022-08-18T20:02:35.191Z,57.79
2022-08-18T20:05:30.559Z,58.11
2022-08-18T20:08:28.563Z,57.78
2022-08-18T20:11:20.866Z,58.33
2022-08-18T20:14:12.576Z,58.42
2022-08-18T20:16:44.548Z,58.40
2022-08-18T20:19:51.807Z,59.38
2022-08-18T20:22:27.010Z,59.17
2022-08-18T20:25:06.079Z,59.51
2022-08-18T20:27:41.827Z,59.73
2022-08-18T20:31:15.520Z,61.25
2022-08-18T20:34:14.074Z,60.35
2022-08-18T20:36:43.677Z,60.38
2022-08-18T20:39:47.593Z,61.31
2022-08-18T20:42:24.552Z,61.42
2022-08-18T20:44:57.650Z,61.23
2022-08-18T20:47:48.442Z,61.57
2022-08-18T20:50:37.515Z,61.54
2022-08-18T20:53:22.731Z,61.62
2022-08-18T20:56:46.399Z,62.13
2022-08-18T20:59:30.515Z,61.75
2022-08-18T21:02:26.232Z,62.03
2022-08-18T21:04:57.752Z,62.20
2022-08-18T21:07:38.227Z,62.30
2022-08-18T21:10:22.972Z,62.43
2022-08-18T21:12:55.794Z,62.43
2022-08-18T21:15:35.388Z,62.54
2022-08-18T21:18:18.640Z,63.17
2022-08-18T21:20:48.916Z,63.02
2022-08-18T21:23:29.294Z,63.04
2022-08-18T21:26:06.620Z,63.13
2022-08-18T21:28:37.803Z,63.18
2022-08-18T21:31:43.606Z,63.93
2022-08-18T21:34:30.504Z,63.59
2022-08-18T21:37:00.518Z,63.86
2022-08-18T21:39:27.037Z,64.15
2022-08-18T21:41:56.963Z,64.40
2022-08-18T21:44:42.288Z,64.19
2022-08-18T21:47:21.585Z,64.44
2022-08-18T21:50:29.056Z,65.58
2022-08-18T21:52:59.987Z,64.84
2022-08-18T21:55:35.748Z,65.10
2022-08-18T21:58:16.638Z,66.10
2022-08-18T22:01:10.576Z,65.75
2022-08-18T22:03:59.140Z,65.97
2022-08-18T22:06:36.649Z,66.10
2022-08-18T22:09:48.287Z,66.73
2022-08-18T22:12:48.758Z,66.01
2022-08-18T22:15:27.065Z,65.62
2022-08-18T22:18:26.391Z,66.26
2022-08-18T22:21:00.859Z,66.59
2022-08-18T22:24:03.661Z,66.22
2022-08-18T22:26:36.689Z,66.08
2022-08-18T22:29:06.410Z,65.88
2022-08-18T22:31:38.899Z,65.53
2022-08-18T22:34:28.227Z,65.94
2022-08-18T22:37:09.800Z,65.88
2022-08-18T22:39:53.597Z,65.58
2022-08-18T22:42:25.811Z,65.30
2022-08-18T22:44:53.110Z,66.10
2022-08-18T22:47:20.078Z,66.29
2022-08-18T22:49:47.254Z,66.53
2022-08-18T22:52:29.754Z,67.12
2022-08-18T22:54:59.655Z,66.55
2022-08-18T22:57:29.370Z,66.39
2022-08-18T22:59:56.600Z,66.45
2022-08-18T23:02:24.703Z,66.29
2022-08-18T23:04:51.240Z,66.66
2022-08-18T23:07:22.554Z,66.17
2022-08-18T23:09:49.084Z,66.06
2022-08-18T23:12:17.104Z,66.01
2022-08-18T23:14:46.438Z,66.09
2022-08-18T23:17:14.060Z,65.76
2022-08-18T23:19:40.886Z,65.65
2022-08-18T23:22:09.535Z,66.17
2022-08-18T23:24:38.515Z,65.96
2022-08-18T23:27:06.149Z,66.70
2022-08-18T23:29:36.568Z,66.89
2022-08-18T23:32:07.919Z,67.20
2022-08-18T23:34:36.000Z,67.33
2022-08-18T23:37:04.487Z,66.79
2022-08-18T23:39:34.808Z,66.77
2022-08-18T23:42:03.751Z,66.70
2022-08-18T23:44:30.790Z,66.70
2022-08-18T23:46:59.790Z,66.91
2022-08-18T23:49:28.599Z,67.25
2022-08-18T23:51:56.013Z,67.60
2022-08-18T23:54:32.183Z,67.17
2022-08-18T23:56:59.482Z,67.42
2022-08-18T23:59:28.498Z,67.41
